Terminal Aerodrome Forecast
Issued by NWS Paducah, KY

Home | Current Version | Previous Version | Text Only | Print | Product List | Glossary On
Versions: 1 2 3 4 5 6 7 8 9 10 11 12 13 14 15 16 17 18 19 20
000
FTUS43 KPAH 272339
TAFPAH
TAF
KPAH 272339Z 2800/2824 21005KT P6SM BKN300
     FM280130 20002KT P6SM BKN026
      TEMPO 2809/2813 4SM BR
     FM281500 18010KT P6SM SCT050=

USA.gov is the U.S. government's official web portal to all federal, state and local government web resources and services.